1984 KAMISY (1984094S10080)


On this page: IBTrACS data - Map and Plots - Positions - Intensities - Original source data

Summary

Start Apr 3
End Apr 16
Basin SI
LMI 110 kt
Sources jtwc_sh
reunion
td9636
neumann
In WMO? Yes
Related storms 1984103S15043
Previous storm 1984 NAMELESS (SP)
Previous in basin 1984 KATHY (SP)
Concurrent storms 1984 KAMISY (SI)
1984 LANCE (SP)
1984 MISSING (SI)
Next in basin 1984 MISSING (SI)
Next storm 1984 LANCE (SP)

top of page IBTrACS Data: File Access

top of page HURSAT Data: File Access

Image of storm

top of page Plots:

Map of storm track will not appear if FTP is down
Time series of cyclone Maximum Sustained Wind will not appear if FTP is down
Time series of cyclone Minimum Central Pressure will not appear if FTP is down

top of page Track Data:Position

jtwc_sh reunion td9636 neumann
Date Lat Lon Lat Lon Lat Lon Lat Lon
1984-04-03 06:00:00 -10.0 80.0 -10.1 80.0
1984-04-03 12:00:00 -10.4 79.0 -10.7 78.3
1984-04-03 18:00:00 -12.0 76.8 -11.0 77.7 -11.2 76.7 -12.0 76.8
1984-04-04 00:00:00 -12.0 75.2 -11.2 76.2 -11.6 75.3 -12.0 75.2
1984-04-04 06:00:00 -12.1 73.8 -11.8 75.0 -11.9 74.0 -12.1 73.8
1984-04-04 12:00:00 -12.3 72.7 -11.9 73.7 -12.0 72.7 -12.3 72.7
1984-04-04 18:00:00 -12.5 71.6 -12.1 72.2 -12.1 71.6 -12.5 71.6
1984-04-05 00:00:00 -12.4 70.5 -12.1 70.9 -12.1 70.7 -12.4 70.5
1984-04-05 06:00:00 -12.3 69.3 -12.2 69.7 -12.2 69.8 -12.3 69.3
1984-04-05 12:00:00 -12.3 68.1 -12.4 68.5 -12.5 68.4 -12.3 68.1
1984-04-05 18:00:00 -12.4 66.8 -12.7 67.2 -12.7 66.8 -12.4 66.8
1984-04-06 00:00:00 -12.6 65.6 -12.8 65.9 -12.8 65.5 -12.6 65.6
1984-04-06 06:00:00 -12.8 64.5 -12.7 64.3 -12.6 64.3 -12.8 64.5
1984-04-06 12:00:00 -12.6 63.3 -12.2 63.2 -12.1 62.9 -12.6 63.3
1984-04-06 18:00:00 -12.4 62.0 -11.8 62.0 -11.7 61.5 -12.4 62.0
1984-04-07 00:00:00 -12.6 60.6 -11.8 60.2 -11.9 60.1 -12.6 60.6
1984-04-07 06:00:00 -12.8 59.1 -12.3 58.7 -12.3 58.7 -12.8 59.1
1984-04-07 12:00:00 -12.9 57.8 -13.0 57.8 -12.9 57.4 -12.9 57.8
1984-04-07 18:00:00 -12.9 56.4 -13.3 56.4 -13.4 56.2 -12.9 56.4
1984-04-08 00:00:00 -12.7 55.0 -13.2 55.0 -13.3 54.8 -12.7 55.0
1984-04-08 06:00:00 -12.5 53.7 -13.0 53.5 -13.0 53.5 -12.5 53.7
1984-04-08 12:00:00 -12.5 52.6 -12.8 52.8 -12.6 52.4 -12.5 52.6
1984-04-08 18:00:00 -12.5 51.5 -12.2 51.8 -12.3 51.3 -12.5 51.5
1984-04-09 00:00:00 -12.4 50.4 -12.1 50.4 -12.3 50.1 -12.4 50.4
1984-04-09 06:00:00 -12.3 49.3 -12.4 49.0 -12.4 49.1 -12.3 49.3
jtwc_sh reunion td9636 neumann
1984-04-09 12:00:00 -12.5 48.3 -12.7 48.3 -12.6 48.3 -12.5 48.3
1984-04-09 18:00:00 -12.8 47.4 -13.0 47.8 -12.9 47.6 -12.8 47.4
1984-04-10 00:00:00 -12.9 46.7 -13.1 47.0 -13.1 46.9 -12.9 46.7
1984-04-10 06:00:00 -12.9 46.1 -13.2 46.2 -13.2 46.3 -12.9 46.1
1984-04-10 12:00:00 -13.0 45.3 -13.2 45.8 -13.2 45.5 -13.0 45.3
1984-04-10 18:00:00 -13.2 45.0 -13.3 45.1 -13.4 45.0 -13.2 45.0
1984-04-11 00:00:00 -13.8 45.2 -14.0 45.1 -13.9 45.5 -13.8 45.2
1984-04-11 06:00:00 -14.4 45.5 -14.3 45.7 -14.4 45.6 -14.4 45.5
1984-04-11 12:00:00 -14.8 45.7 -14.8 45.9 -14.8 45.7
1984-04-11 18:00:00 -15.2 46.0 -15.0 46.2 -15.2 46.0
1984-04-12 00:00:00 -15.5 46.3 -15.4 46.6 -15.5 46.3
1984-04-12 06:00:00 -15.9 46.7 -16.0 47.0 -15.9 46.7
1984-04-12 12:00:00 -16.8 48.6 -16.9 47.0 -16.8 48.6
1984-04-12 18:00:00 -17.7 50.4 -17.7 47.5 -17.6 47.6 -17.7 50.4
1984-04-13 00:00:00 -18.0 50.4 -17.8 49.0 -17.9 49.4 -18.0 50.4
1984-04-13 06:00:00 -18.3 50.4 -18.0 50.4 -18.1 50.4 -18.3 50.4
1984-04-13 12:00:00 -18.6 50.6 -18.6 50.6 -18.7 50.7 -18.6 50.6
1984-04-13 18:00:00 -19.0 50.7 -19.8 50.4 -19.3 50.6 -19.0 50.7
1984-04-14 00:00:00 -19.4 50.7 -19.7 50.5 -19.7 50.4 -19.4 50.7
1984-04-14 06:00:00 -20.0 50.8 -20.5 50.2 -20.4 50.2 -20.0 50.8
1984-04-14 12:00:00 -21.5 50.8 -21.7 50.1 -21.7 50.1 -21.5 50.8
1984-04-14 18:00:00 -23.2 50.9 -22.7 50.1 -23.2 50.1 -23.2 50.9
1984-04-15 00:00:00 -24.5 51.1 -24.0 50.2 -24.3 50.4 -24.5 51.1
1984-04-15 06:00:00 -25.7 51.5 -25.4 50.6 -25.4 50.7 -25.7 51.5
jtwc_sh reunion td9636 neumann
1984-04-15 12:00:00 -26.7 50.9 -26.9 50.9
1984-04-15 18:00:00 -28.0 50.9 -28.5 50.8
1984-04-16 00:00:00 -30.0 50.2 -30.1 50.3
1984-04-16 06:00:00 -31.8 49.3 -31.7 49.5

top of pageTrack Data:Intensity

jtwc_sh reunion td9636 neumann
Date Wind Pres Wind Pres Wind Pres Wind Pres
1984-04-03 06:00:00 36.
1984-04-03 12:00:00 36.
1984-04-03 18:00:00 20. 36. 20.
1984-04-04 00:00:00 20. 36. 20.
1984-04-04 06:00:00 25. 20. 1003. 30. 25.
1984-04-04 12:00:00 25. 24. 1000. 30. 25.
1984-04-04 18:00:00 30. 24. 1000. 35. 30.
1984-04-05 00:00:00 30. 28. 997. 35. 30.
1984-04-05 06:00:00 30. 36. 991. 40. 30.
1984-04-05 12:00:00 35. 36. 991. 40. 35.
1984-04-05 18:00:00 45. 36. 991. 45. 45.
1984-04-06 00:00:00 55. 36. 991. 45. 55.
1984-04-06 06:00:00 65. 44. 984. 50. 65.
1984-04-06 12:00:00 70. 44. 984. 50. 70.
1984-04-06 18:00:00 75. 44. 984. 55. 75.
1984-04-07 00:00:00 80. 44. 984. 55. 80.
1984-04-07 06:00:00 85. 52. 976. 60. 85.
1984-04-07 12:00:00 90. 72. 954. 60. 90.
1984-04-07 18:00:00 90. 82. 941. 95. 90.
1984-04-08 00:00:00 90. 92. 927. 95. 90.
1984-04-08 06:00:00 95. 92. 927. 110. 95.
1984-04-08 12:00:00 100. 92. 927. 110. 100.
1984-04-08 18:00:00 100. 82. 941. 110. 105. 943.
1984-04-09 00:00:00 100. 72. 954. 110. 100.
1984-04-09 06:00:00 95. 62. 966. 100. 95.
jtwc_sh reunion td9636 neumann
1984-04-09 12:00:00 95. 62. 966. 100. 95.
1984-04-09 18:00:00 90. 62. 966. 95. 90.
1984-04-10 00:00:00 90. 72. 954. 95. 90.
1984-04-10 06:00:00 85. 72. 954. 85. 85.
1984-04-10 12:00:00 85. 72. 954. 85. 85.
1984-04-10 18:00:00 80. 62. 966. 75. 80.
1984-04-11 00:00:00 80. 52. 976. 75. 80.
1984-04-11 06:00:00 80. 52. 976. 65. 80.
1984-04-11 12:00:00 80. 44. 984. 80.
1984-04-11 18:00:00 75. 44. 984. 75.
1984-04-12 00:00:00 70. 44. 984. 70.
1984-04-12 06:00:00 65. 36. 65.
1984-04-12 12:00:00 50. 36. 50.
1984-04-12 18:00:00 35. 36. 35.
1984-04-13 00:00:00 35. 24. 1000. 35.
1984-04-13 06:00:00 35. 24. 1000. 35.
1984-04-13 12:00:00 35. 24. 1000. 35.
1984-04-13 18:00:00 35. 36. 35.
1984-04-14 00:00:00 35. 36. 35.
1984-04-14 06:00:00 30. 36. 30.
1984-04-14 12:00:00 30. 36. 30.
1984-04-14 18:00:00 25. 36. 25.
1984-04-15 00:00:00 25. 36. 25.
1984-04-15 06:00:00 20. 36. 20.
jtwc_sh reunion td9636 neumann
1984-04-15 12:00:00 36.
1984-04-15 18:00:00 36.
1984-04-16 00:00:00 36.
1984-04-16 06:00:00 36.

top of page Links to source data

Source Source file Format
jtwc_sh bsh321984.txt ATCF
reunion WMO-Best-Tracks.txt:Line=12979:kamisy WMO (old format)
td9636 cons_worldwide_trop_cyclone_18710101-19891231-005:Line=12795 TD 9636
neumann tracks.sh:Storm=714:KAMISY:BSH3084:JTWC HURDAT